< < Back
Terminal Aerodrome Forecast


Current Version              Previous Versions:   1  2  3  4  5  6  7  8  9  

Terminal Aerodrome Forecast

402
FTUS44 KBMX 311100
TAFMGM
TAF
KMGM 311136Z 3112/0112 00000KT P6SM SCT250
     FM311400 07004KT P6SM BKN250
     FM311800 12006KT P6SM OVC250
     FM010000 10002KT P6SM OVC250=

Latest METAR

008
SAUS80 KWBC 311400
MTRMGM
METAR KMGM 311353Z 05006KT 10SM CLR 03/M04 A3039 RMK AO2 SLP291
T00281039


USA.gov is the U.S. government's official web portal to all federal, state and local government web resources and services.